sensor_id;sensor_type;location;lat;lon;timestamp;temperature;humidity
6964;DHT22;3522;50.856;7.278;2023-09-18T00:01:01;20.50;99.90
6964;DHT22;3522;50.856;7.278;2023-09-18T00:03:29;20.50;99.90
6964;DHT22;3522;50.856;7.278;2023-09-18T00:05:55;20.40;99.90
6964;DHT22;3522;50.856;7.278;2023-09-18T00:08:22;20.40;99.90
6964;DHT22;3522;50.856;7.278;2023-09-18T00:10:49;20.40;99.90
6964;DHT22;3522;50.856;7.278;2023-09-18T00:13:16;20.40;99.90
6964;DHT22;3522;50.856;7.278;2023-09-18T00:15:43;20.40;99.90
6964;DHT22;3522;50.856;7.278;2023-09-18T00:18:12;20.40;99.90
6964;DHT22;3522;50.856;7.278;2023-09-18T00:20:40;20.30;99.90
6964;DHT22;3522;50.856;7.278;2023-09-18T00:23:08;20.30;99.90
6964;DHT22;3522;50.856;7.278;2023-09-18T00:25:34;20.30;99.90
6964;DHT22;3522;50.856;7.278;2023-09-18T00:28:02;20.30;99.90
6964;DHT22;3522;50.856;7.278;2023-09-18T00:30:28;20.30;99.90
6964;DHT22;3522;50.856;7.278;2023-09-18T00:32:55;20.20;99.90
6964;DHT22;3522;50.856;7.278;2023-09-18T00:35:22;20.30;99.90
6964;DHT22;3522;50.856;7.278;2023-09-18T00:37:50;20.20;99.90
6964;DHT22;3522;50.856;7.278;2023-09-18T00:40:18;20.20;99.90
6964;DHT22;3522;50.856;7.278;2023-09-18T00:42:44;20.20;99.90
6964;DHT22;3522;50.856;7.278;2023-09-18T00:45:11;20.20;99.90
6964;DHT22;3522;50.856;7.278;2023-09-18T00:47:38;20.20;99.90
6964;DHT22;3522;50.856;7.278;2023-09-18T00:50:05;20.10;99.90
6964;DHT22;3522;50.856;7.278;2023-09-18T00:52:32;20.10;99.90
6964;DHT22;3522;50.856;7.278;2023-09-18T00:55:00;20.10;99.90
6964;DHT22;3522;50.856;7.278;2023-09-18T00:57:28;20.10;99.90
6964;DHT22;3522;50.856;7.278;2023-09-18T00:59:54;20.10;99.90
6964;DHT22;3522;50.856;7.278;2023-09-18T01:02:21;20.00;99.90
6964;DHT22;3522;50.856;7.278;2023-09-18T01:04:48;20.10;99.90
6964;DHT22;3522;50.856;7.278;2023-09-18T01:07:15;20.10;99.90
6964;DHT22;3522;50.856;7.278;2023-09-18T01:09:42;20.10;99.90
6964;DHT22;3522;50.856;7.278;2023-09-18T01:12:16;20.00;99.90
6964;DHT22;3522;50.856;7.278;2023-09-18T01:14:48;20.10;99.90
6964;DHT22;3522;50.856;7.278;2023-09-18T01:17:17;20.10;99.90
6964;DHT22;3522;50.856;7.278;2023-09-18T01:19:45;20.10;99.90
6964;DHT22;3522;50.856;7.278;2023-09-18T01:22:12;20.10;99.90
6964;DHT22;3522;50.856;7.278;2023-09-18T01:24:40;20.10;99.90
6964;DHT22;3522;50.856;7.278;2023-09-18T01:27:08;20.10;99.90
6964;DHT22;3522;50.856;7.278;2023-09-18T01:29:35;20.10;99.90
6964;DHT22;3522;50.856;7.278;2023-09-18T01:32:01;20.10;99.90
6964;DHT22;3522;50.856;7.278;2023-09-18T01:34:28;20.10;99.90
6964;DHT22;3522;50.856;7.278;2023-09-18T01:36:58;20.10;99.90
6964;DHT22;3522;50.856;7.278;2023-09-18T01:39:25;20.10;99.90
6964;DHT22;3522;50.856;7.278;2023-09-18T01:41:58;20.20;99.90
6964;DHT22;3522;50.856;7.278;2023-09-18T01:44:24;20.10;99.90
6964;DHT22;3522;50.856;7.278;2023-09-18T01:46:51;20.10;99.90
6964;DHT22;3522;50.856;7.278;2023-09-18T01:49:26;20.20;99.90
6964;DHT22;3522;50.856;7.278;2023-09-18T01:51:52;20.20;99.90
6964;DHT22;3522;50.856;7.278;2023-09-18T01:54:19;20.20;99.90
6964;DHT22;3522;50.856;7.278;2023-09-18T01:56:46;20.20;99.90
6964;DHT22;3522;50.856;7.278;2023-09-18T01:59:13;20.30;99.90
6964;DHT22;3522;50.856;7.278;2023-09-18T02:01:40;20.30;99.90
6964;DHT22;3522;50.856;7.278;2023-09-18T02:04:06;20.30;99.90
6964;DHT22;3522;50.856;7.278;2023-09-18T02:06:33;20.30;99.90
6964;DHT22;3522;50.856;7.278;2023-09-18T02:09:00;20.40;99.90
6964;DHT22;3522;50.856;7.278;2023-09-18T02:11:26;20.40;99.90
6964;DHT22;3522;50.856;7.278;2023-09-18T02:13:53;20.40;99.90
6964;DHT22;3522;50.856;7.278;2023-09-18T02:16:21;20.40;99.90
6964;DHT22;3522;50.856;7.278;2023-09-18T02:18:49;20.50;99.90
6964;DHT22;3522;50.856;7.278;2023-09-18T02:21:18;20.50;99.90
6964;DHT22;3522;50.856;7.278;2023-09-18T02:23:45;20.50;99.90
6964;DHT22;3522;50.856;7.278;2023-09-18T02:26:11;20.60;99.90
6964;DHT22;3522;50.856;7.278;2023-09-18T02:28:38;20.70;99.90
6964;DHT22;3522;50.856;7.278;2023-09-18T02:31:04;20.70;99.90
6964;DHT22;3522;50.856;7.278;2023-09-18T02:33:32;20.80;99.90
6964;DHT22;3522;50.856;7.278;2023-09-18T02:35:59;20.80;99.90
6964;DHT22;3522;50.856;7.278;2023-09-18T02:38:25;20.70;99.90
6964;DHT22;3522;50.856;7.278;2023-09-18T02:40:52;20.70;99.90
6964;DHT22;3522;50.856;7.278;2023-09-18T02:43:19;20.60;99.90
6964;DHT22;3522;50.856;7.278;2023-09-18T02:45:46;20.60;99.90
6964;DHT22;3522;50.856;7.278;2023-09-18T02:48:13;20.50;99.90
6964;DHT22;3522;50.856;7.278;2023-09-18T02:50:41;20.40;99.90
6964;DHT22;3522;50.856;7.278;2023-09-18T02:53:07;20.30;99.90
6964;DHT22;3522;50.856;7.278;2023-09-18T02:55:37;20.20;99.90
6964;DHT22;3522;50.856;7.278;2023-09-18T02:58:04;20.20;99.90
6964;DHT22;3522;50.856;7.278;2023-09-18T03:00:30;20.10;99.90
6964;DHT22;3522;50.856;7.278;2023-09-18T03:02:57;20.10;99.90
6964;DHT22;3522;50.856;7.278;2023-09-18T03:05:24;20.10;99.90
6964;DHT22;3522;50.856;7.278;2023-09-18T03:07:53;20.00;99.90
6964;DHT22;3522;50.856;7.278;2023-09-18T03:10:19;20.00;99.90
6964;DHT22;3522;50.856;7.278;2023-09-18T03:12:47;19.90;99.90
6964;DHT22;3522;50.856;7.278;2023-09-18T03:15:14;19.90;99.90
6964;DHT22;3522;50.856;7.278;2023-09-18T03:17:40;19.90;99.90
6964;DHT22;3522;50.856;7.278;2023-09-18T03:20:07;19.80;99.90
6964;DHT22;3522;50.856;7.278;2023-09-18T03:22:34;19.80;99.90
6964;DHT22;3522;50.856;7.278;2023-09-18T03:25:02;19.80;99.90
6964;DHT22;3522;50.856;7.278;2023-09-18T03:27:29;19.80;99.90
6964;DHT22;3522;50.856;7.278;2023-09-18T03:29:57;19.70;99.90
6964;DHT22;3522;50.856;7.278;2023-09-18T03:32:23;19.70;99.90
6964;DHT22;3522;50.856;7.278;2023-09-18T03:34:50;19.60;99.90
6964;DHT22;3522;50.856;7.278;2023-09-18T03:37:17;19.60;99.90
6964;DHT22;3522;50.856;7.278;2023-09-18T03:39:44;19.60;99.90
6964;DHT22;3522;50.856;7.278;2023-09-18T03:42:12;19.50;99.90
6964;DHT22;3522;50.856;7.278;2023-09-18T03:44:38;19.50;99.90
6964;DHT22;3522;50.856;7.278;2023-09-18T03:47:05;19.50;99.90
6964;DHT22;3522;50.856;7.278;2023-09-18T03:49:31;19.50;99.90
6964;DHT22;3522;50.856;7.278;2023-09-18T03:51:58;19.50;99.90
6964;DHT22;3522;50.856;7.278;2023-09-18T03:54:24;19.50;99.90
6964;DHT22;3522;50.856;7.278;2023-09-18T03:56:51;19.40;99.90
6964;DHT22;3522;50.856;7.278;2023-09-18T03:59:19;19.40;99.90
6964;DHT22;3522;50.856;7.278;2023-09-18T04:01:45;19.40;99.90
6964;DHT22;3522;50.856;7.278;2023-09-18T04:04:12;19.40;99.90
6964;DHT22;3522;50.856;7.278;2023-09-18T04:06:40;19.40;99.90
6964;DHT22;3522;50.856;7.278;2023-09-18T04:09:07;19.30;99.90
6964;DHT22;3522;50.856;7.278;2023-09-18T04:11:33;19.30;99.90
6964;DHT22;3522;50.856;7.278;2023-09-18T04:14:00;19.30;99.90
6964;DHT22;3522;50.856;7.278;2023-09-18T04:16:28;19.30;99.90
6964;DHT22;3522;50.856;7.278;2023-09-18T04:18:56;19.30;99.90
6964;DHT22;3522;50.856;7.278;2023-09-18T04:21:22;19.30;99.90
6964;DHT22;3522;50.856;7.278;2023-09-18T04:23:50;19.30;99.90
6964;DHT22;3522;50.856;7.278;2023-09-18T04:26:22;19.20;99.90
6964;DHT22;3522;50.856;7.278;2023-09-18T04:28:49;19.20;99.90
6964;DHT22;3522;50.856;7.278;2023-09-18T04:31:15;19.20;99.90
6964;DHT22;3522;50.856;7.278;2023-09-18T04:33:43;19.20;99.90
6964;DHT22;3522;50.856;7.278;2023-09-18T04:36:10;19.20;99.90
6964;DHT22;3522;50.856;7.278;2023-09-18T04:38:37;19.20;99.90
6964;DHT22;3522;50.856;7.278;2023-09-18T04:41:03;19.20;99.90
6964;DHT22;3522;50.856;7.278;2023-09-18T04:43:33;19.20;99.90
6964;DHT22;3522;50.856;7.278;2023-09-18T04:46:00;19.20;99.90
6964;DHT22;3522;50.856;7.278;2023-09-18T04:48:27;19.20;99.90
6964;DHT22;3522;50.856;7.278;2023-09-18T04:50:56;19.20;99.90
6964;DHT22;3522;50.856;7.278;2023-09-18T04:53:23;19.30;99.90
6964;DHT22;3522;50.856;7.278;2023-09-18T04:55:49;19.30;99.90
6964;DHT22;3522;50.856;7.278;2023-09-18T04:58:16;19.30;99.90
6964;DHT22;3522;50.856;7.278;2023-09-18T05:00:42;19.30;99.90
6964;DHT22;3522;50.856;7.278;2023-09-18T05:03:09;19.30;99.90
6964;DHT22;3522;50.856;7.278;2023-09-18T05:05:36;19.30;99.90
6964;DHT22;3522;50.856;7.278;2023-09-18T05:08:06;19.40;99.90
6964;DHT22;3522;50.856;7.278;2023-09-18T05:10:33;19.40;99.90
6964;DHT22;3522;50.856;7.278;2023-09-18T05:13:00;19.40;99.90
6964;DHT22;3522;50.856;7.278;2023-09-18T05:15:26;19.40;99.90
6964;DHT22;3522;50.856;7.278;2023-09-18T05:17:54;19.30;99.90
6964;DHT22;3522;50.856;7.278;2023-09-18T05:20:23;19.30;99.90
6964;DHT22;3522;50.856;7.278;2023-09-18T05:22:50;19.40;99.90
6964;DHT22;3522;50.856;7.278;2023-09-18T05:25:19;19.40;99.90
6964;DHT22;3522;50.856;7.278;2023-09-18T05:27:46;19.40;99.90
6964;DHT22;3522;50.856;7.278;2023-09-18T05:30:13;19.40;99.90
6964;DHT22;3522;50.856;7.278;2023-09-18T05:32:41;19.40;99.90
6964;DHT22;3522;50.856;7.278;2023-09-18T05:35:08;19.40;99.90
6964;DHT22;3522;50.856;7.278;2023-09-18T05:37:38;19.40;99.90
6964;DHT22;3522;50.856;7.278;2023-09-18T05:40:05;19.40;99.90
6964;DHT22;3522;50.856;7.278;2023-09-18T05:42:36;19.40;99.90
6964;DHT22;3522;50.856;7.278;2023-09-18T05:45:02;19.40;99.90
6964;DHT22;3522;50.856;7.278;2023-09-18T05:47:30;19.40;99.90
6964;DHT22;3522;50.856;7.278;2023-09-18T05:49:57;19.40;99.90
6964;DHT22;3522;50.856;7.278;2023-09-18T05:52:23;19.40;99.90
6964;DHT22;3522;50.856;7.278;2023-09-18T05:54:50;19.40;99.90
6964;DHT22;3522;50.856;7.278;2023-09-18T05:57:17;19.50;99.90
6964;DHT22;3522;50.856;7.278;2023-09-18T05:59:45;19.50;99.90
6964;DHT22;3522;50.856;7.278;2023-09-18T06:02:12;19.40;99.90
6964;DHT22;3522;50.856;7.278;2023-09-18T06:04:38;19.50;99.90
6964;DHT22;3522;50.856;7.278;2023-09-18T06:07:05;19.50;99.90
6964;DHT22;3522;50.856;7.278;2023-09-18T06:09:31;19.50;99.90
6964;DHT22;3522;50.856;7.278;2023-09-18T06:11:59;19.50;99.90
6964;DHT22;3522;50.856;7.278;2023-09-18T06:14:26;19.50;99.90
6964;DHT22;3522;50.856;7.278;2023-09-18T06:16:53;19.50;99.90
6964;DHT22;3522;50.856;7.278;2023-09-18T06:19:20;19.50;99.90
6964;DHT22;3522;50.856;7.278;2023-09-18T06:21:47;19.50;99.90
6964;DHT22;3522;50.856;7.278;2023-09-18T06:24:13;19.50;99.90
6964;DHT22;3522;50.856;7.278;2023-09-18T06:26:40;19.50;99.90
6964;DHT22;3522;50.856;7.278;2023-09-18T06:29:06;19.50;99.90
6964;DHT22;3522;50.856;7.278;2023-09-18T06:31:34;19.60;99.90
6964;DHT22;3522;50.856;7.278;2023-09-18T06:34:02;19.60;99.90
6964;DHT22;3522;50.856;7.278;2023-09-18T06:36:29;19.60;99.90
6964;DHT22;3522;50.856;7.278;2023-09-18T06:38:55;19.60;99.90
6964;DHT22;3522;50.856;7.278;2023-09-18T06:41:22;19.70;99.90
6964;DHT22;3522;50.856;7.278;2023-09-18T06:43:48;19.70;99.90
6964;DHT22;3522;50.856;7.278;2023-09-18T06:46:15;19.70;99.90
6964;DHT22;3522;50.856;7.278;2023-09-18T06:48:42;19.70;99.90
6964;DHT22;3522;50.856;7.278;2023-09-18T06:51:12;19.80;99.90
6964;DHT22;3522;50.856;7.278;2023-09-18T06:53:38;19.80;99.90
6964;DHT22;3522;50.856;7.278;2023-09-18T06:56:05;19.80;99.90
6964;DHT22;3522;50.856;7.278;2023-09-18T06:58:31;19.90;99.90
6964;DHT22;3522;50.856;7.278;2023-09-18T07:00:58;19.90;99.90
6964;DHT22;3522;50.856;7.278;2023-09-18T07:03:25;20.00;99.90
6964;DHT22;3522;50.856;7.278;2023-09-18T07:05:51;20.00;99.90
6964;DHT22;3522;50.856;7.278;2023-09-18T07:08:19;20.00;99.90
6964;DHT22;3522;50.856;7.278;2023-09-18T07:10:48;20.00;99.90
6964;DHT22;3522;50.856;7.278;2023-09-18T07:13:15;20.10;99.90
6964;DHT22;3522;50.856;7.278;2023-09-18T07:15:42;20.10;99.90
6964;DHT22;3522;50.856;7.278;2023-09-18T07:18:09;20.10;99.90
6964;DHT22;3522;50.856;7.278;2023-09-18T07:20:39;20.00;99.90
6964;DHT22;3522;50.856;7.278;2023-09-18T07:23:05;20.10;99.90
6964;DHT22;3522;50.856;7.278;2023-09-18T07:25:33;20.10;99.90
6964;DHT22;3522;50.856;7.278;2023-09-18T07:28:04;20.10;99.90
6964;DHT22;3522;50.856;7.278;2023-09-18T07:30:30;20.20;99.90
6964;DHT22;3522;50.856;7.278;2023-09-18T07:32:57;20.20;99.90
6964;DHT22;3522;50.856;7.278;2023-09-18T07:35:23;20.20;99.90
6964;DHT22;3522;50.856;7.278;2023-09-18T07:37:50;20.20;99.90
6964;DHT22;3522;50.856;7.278;2023-09-18T07:40:17;20.10;99.90
6964;DHT22;3522;50.856;7.278;2023-09-18T07:42:45;20.20;99.90
6964;DHT22;3522;50.856;7.278;2023-09-18T07:45:12;20.20;99.90
6964;DHT22;3522;50.856;7.278;2023-09-18T07:47:38;20.30;99.90
6964;DHT22;3522;50.856;7.278;2023-09-18T07:50:05;20.30;99.90
6964;DHT22;3522;50.856;7.278;2023-09-18T07:52:32;20.30;99.90
6964;DHT22;3522;50.856;7.278;2023-09-18T07:54:59;20.30;99.90
6964;DHT22;3522;50.856;7.278;2023-09-18T07:57:25;20.30;99.90
6964;DHT22;3522;50.856;7.278;2023-09-18T07:59:57;20.40;99.90
6964;DHT22;3522;50.856;7.278;2023-09-18T08:02:23;20.60;99.90
6964;DHT22;3522;50.856;7.278;2023-09-18T08:04:50;20.60;99.90
6964;DHT22;3522;50.856;7.278;2023-09-18T08:07:18;20.60;99.90
6964;DHT22;3522;50.856;7.278;2023-09-18T08:09:45;20.60;99.90
6964;DHT22;3522;50.856;7.278;2023-09-18T08:12:14;20.60;99.90
6964;DHT22;3522;50.856;7.278;2023-09-18T08:14:41;20.60;99.90
6964;DHT22;3522;50.856;7.278;2023-09-18T08:17:08;20.50;99.90
6964;DHT22;3522;50.856;7.278;2023-09-18T08:19:35;20.60;99.90
6964;DHT22;3522;50.856;7.278;2023-09-18T08:22:02;20.50;99.90
6964;DHT22;3522;50.856;7.278;2023-09-18T08:24:29;20.50;99.90
6964;DHT22;3522;50.856;7.278;2023-09-18T08:26:56;20.50;99.90
6964;DHT22;3522;50.856;7.278;2023-09-18T08:29:22;20.40;99.90
6964;DHT22;3522;50.856;7.278;2023-09-18T08:31:49;20.40;99.90
6964;DHT22;3522;50.856;7.278;2023-09-18T08:34:17;20.50;99.90
6964;DHT22;3522;50.856;7.278;2023-09-18T08:36:44;20.40;99.90
6964;DHT22;3522;50.856;7.278;2023-09-18T08:39:10;20.40;99.90
6964;DHT22;3522;50.856;7.278;2023-09-18T08:41:38;20.40;99.90
6964;DHT22;3522;50.856;7.278;2023-09-18T08:44:05;20.40;99.90
6964;DHT22;3522;50.856;7.278;2023-09-18T08:46:34;20.50;99.90
6964;DHT22;3522;50.856;7.278;2023-09-18T08:49:01;20.60;99.90
6964;DHT22;3522;50.856;7.278;2023-09-18T08:51:29;20.60;99.90
6964;DHT22;3522;50.856;7.278;2023-09-18T08:53:56;20.70;99.90
6964;DHT22;3522;50.856;7.278;2023-09-18T08:56:23;20.60;99.90
6964;DHT22;3522;50.856;7.278;2023-09-18T08:58:49;20.70;99.90
6964;DHT22;3522;50.856;7.278;2023-09-18T09:01:17;20.80;99.90
6964;DHT22;3522;50.856;7.278;2023-09-18T09:03:44;20.80;99.90
6964;DHT22;3522;50.856;7.278;2023-09-18T09:06:11;20.90;99.90
6964;DHT22;3522;50.856;7.278;2023-09-18T09:08:39;20.90;99.90
6964;DHT22;3522;50.856;7.278;2023-09-18T09:11:06;20.90;99.90
6964;DHT22;3522;50.856;7.278;2023-09-18T09:13:32;21.10;99.90
6964;DHT22;3522;50.856;7.278;2023-09-18T09:15:59;21.20;99.90
6964;DHT22;3522;50.856;7.278;2023-09-18T09:18:27;21.20;99.90
6964;DHT22;3522;50.856;7.278;2023-09-18T09:20:54;21.20;99.90
6964;DHT22;3522;50.856;7.278;2023-09-18T09:23:23;21.10;99.90
6964;DHT22;3522;50.856;7.278;2023-09-18T09:25:51;21.10;99.90
6964;DHT22;3522;50.856;7.278;2023-09-18T09:28:28;21.10;99.90
6964;DHT22;3522;50.856;7.278;2023-09-18T09:30:59;21.10;99.90
6964;DHT22;3522;50.856;7.278;2023-09-18T09:33:26;21.20;99.90
6964;DHT22;3522;50.856;7.278;2023-09-18T09:35:53;21.10;99.90
6964;DHT22;3522;50.856;7.278;2023-09-18T09:38:19;21.10;99.90
6964;DHT22;3522;50.856;7.278;2023-09-18T09:40:47;21.00;99.90
6964;DHT22;3522;50.856;7.278;2023-09-18T09:43:15;20.80;99.90
6964;DHT22;3522;50.856;7.278;2023-09-18T09:45:42;20.90;99.90
6964;DHT22;3522;50.856;7.278;2023-09-18T09:48:08;20.90;99.90
6964;DHT22;3522;50.856;7.278;2023-09-18T09:50:43;21.00;99.90
6964;DHT22;3522;50.856;7.278;2023-09-18T09:53:11;20.90;99.90
6964;DHT22;3522;50.856;7.278;2023-09-18T09:55:38;21.00;99.90
6964;DHT22;3522;50.856;7.278;2023-09-18T09:58:05;20.90;99.90
6964;DHT22;3522;50.856;7.278;2023-09-18T10:00:35;20.80;99.90
6964;DHT22;3522;50.856;7.278;2023-09-18T10:03:09;20.70;99.90
6964;DHT22;3522;50.856;7.278;2023-09-18T10:05:36;20.80;99.90
6964;DHT22;3522;50.856;7.278;2023-09-18T10:08:04;20.80;99.90
6964;DHT22;3522;50.856;7.278;2023-09-18T10:10:33;21.00;99.90
6964;DHT22;3522;50.856;7.278;2023-09-18T10:13:00;21.10;99.90
6964;DHT22;3522;50.856;7.278;2023-09-18T10:15:29;21.30;99.90
6964;DHT22;3522;50.856;7.278;2023-09-18T10:18:00;21.50;99.90
6964;DHT22;3522;50.856;7.278;2023-09-18T10:20:27;21.60;99.90
6964;DHT22;3522;50.856;7.278;2023-09-18T10:22:56;21.80;99.90
6964;DHT22;3522;50.856;7.278;2023-09-18T10:25:23;21.80;99.90
6964;DHT22;3522;50.856;7.278;2023-09-18T10:27:51;22.00;99.90
6964;DHT22;3522;50.856;7.278;2023-09-18T10:30:20;22.30;99.90
6964;DHT22;3522;50.856;7.278;2023-09-18T10:32:48;22.60;99.90
6964;DHT22;3522;50.856;7.278;2023-09-18T10:35:17;23.00;99.90
6964;DHT22;3522;50.856;7.278;2023-09-18T10:37:46;23.20;99.90
6964;DHT22;3522;50.856;7.278;2023-09-18T10:40:14;23.30;99.90
6964;DHT22;3522;50.856;7.278;2023-09-18T10:42:42;23.20;99.90
6964;DHT22;3522;50.856;7.278;2023-09-18T10:45:10;23.50;99.90
6964;DHT22;3522;50.856;7.278;2023-09-18T10:47:37;23.40;99.90
6964;DHT22;3522;50.856;7.278;2023-09-18T10:50:05;23.50;99.90
6964;DHT22;3522;50.856;7.278;2023-09-18T10:52:34;23.40;99.90
6964;DHT22;3522;50.856;7.278;2023-09-18T10:55:01;23.40;99.90
6964;DHT22;3522;50.856;7.278;2023-09-18T10:57:32;23.70;99.90
6964;DHT22;3522;50.856;7.278;2023-09-18T10:59:59;23.40;99.90
6964;DHT22;3522;50.856;7.278;2023-09-18T11:02:26;23.40;99.90
6964;DHT22;3522;50.856;7.278;2023-09-18T11:04:54;23.20;99.90
6964;DHT22;3522;50.856;7.278;2023-09-18T11:07:21;22.90;99.90
6964;DHT22;3522;50.856;7.278;2023-09-18T11:09:49;23.00;99.90
6964;DHT22;3522;50.856;7.278;2023-09-18T11:12:16;23.20;99.90
6964;DHT22;3522;50.856;7.278;2023-09-18T11:14:44;23.40;99.90
6964;DHT22;3522;50.856;7.278;2023-09-18T11:17:28;23.50;99.90
6964;DHT22;3522;50.856;7.278;2023-09-18T11:20:01;23.40;99.90
6964;DHT22;3522;50.856;7.278;2023-09-18T11:22:30;23.50;99.90
6964;DHT22;3522;50.856;7.278;2023-09-18T11:27:51;23.90;99.90
6964;DHT22;3522;50.856;7.278;2023-09-18T11:30:19;23.80;99.90
6964;DHT22;3522;50.856;7.278;2023-09-18T11:32:46;24.00;99.90
6964;DHT22;3522;50.856;7.278;2023-09-18T11:35:13;24.00;99.90
6964;DHT22;3522;50.856;7.278;2023-09-18T11:37:42;24.10;99.90
6964;DHT22;3522;50.856;7.278;2023-09-18T11:45:34;24.30;99.90
6964;DHT22;3522;50.856;7.278;2023-09-18T11:48:00;24.30;99.90
6964;DHT22;3522;50.856;7.278;2023-09-18T11:50:27;24.40;99.90
6964;DHT22;3522;50.856;7.278;2023-09-18T11:52:56;24.20;99.90
6964;DHT22;3522;50.856;7.278;2023-09-18T11:55:23;24.50;99.90
6964;DHT22;3522;50.856;7.278;2023-09-18T11:57:50;24.70;99.90
6964;DHT22;3522;50.856;7.278;2023-09-18T12:00:21;24.50;99.90
6964;DHT22;3522;50.856;7.278;2023-09-18T12:02:50;24.60;99.90
6964;DHT22;3522;50.856;7.278;2023-09-18T12:05:17;24.60;99.90
6964;DHT22;3522;50.856;7.278;2023-09-18T12:07:44;24.70;99.90
6964;DHT22;3522;50.856;7.278;2023-09-18T12:10:11;24.70;99.90
6964;DHT22;3522;50.856;7.278;2023-09-18T12:12:38;24.90;99.90
6964;DHT22;3522;50.856;7.278;2023-09-18T12:15:05;24.90;99.90
6964;DHT22;3522;50.856;7.278;2023-09-18T12:17:32;25.00;99.90
6964;DHT22;3522;50.856;7.278;2023-09-18T12:20:00;25.10;99.90
6964;DHT22;3522;50.856;7.278;2023-09-18T12:22:29;25.40;99.90
6964;DHT22;3522;50.856;7.278;2023-09-18T12:25:09;25.40;99.90
6964;DHT22;3522;50.856;7.278;2023-09-18T12:27:36;25.30;99.90
6964;DHT22;3522;50.856;7.278;2023-09-18T12:30:03;25.60;99.90
6964;DHT22;3522;50.856;7.278;2023-09-18T12:32:30;25.50;99.90
6964;DHT22;3522;50.856;7.278;2023-09-18T12:34:57;25.10;99.90
6964;DHT22;3522;50.856;7.278;2023-09-18T12:37:26;24.90;99.90
6964;DHT22;3522;50.856;7.278;2023-09-18T12:39:52;25.00;99.90
6964;DHT22;3522;50.856;7.278;2023-09-18T12:42:19;24.90;99.90
6964;DHT22;3522;50.856;7.278;2023-09-18T12:44:46;24.60;99.90
6964;DHT22;3522;50.856;7.278;2023-09-18T12:47:13;24.70;99.90
6964;DHT22;3522;50.856;7.278;2023-09-18T12:49:40;24.50;99.90
6964;DHT22;3522;50.856;7.278;2023-09-18T12:52:07;24.40;99.90
6964;DHT22;3522;50.856;7.278;2023-09-18T12:54:41;24.50;99.90
6964;DHT22;3522;50.856;7.278;2023-09-18T12:57:08;24.60;99.90
6964;DHT22;3522;50.856;7.278;2023-09-18T12:59:36;24.70;99.90
6964;DHT22;3522;50.856;7.278;2023-09-18T13:02:03;24.80;99.90
6964;DHT22;3522;50.856;7.278;2023-09-18T13:04:30;24.80;99.90
6964;DHT22;3522;50.856;7.278;2023-09-18T13:07:05;24.70;99.90
6964;DHT22;3522;50.856;7.278;2023-09-18T13:09:32;24.60;99.90
6964;DHT22;3522;50.856;7.278;2023-09-18T13:12:01;24.70;99.90
6964;DHT22;3522;50.856;7.278;2023-09-18T13:14:29;24.80;99.90
6964;DHT22;3522;50.856;7.278;2023-09-18T13:17:00;24.90;99.90
6964;DHT22;3522;50.856;7.278;2023-09-18T13:19:28;24.80;99.90
6964;DHT22;3522;50.856;7.278;2023-09-18T13:21:55;24.60;99.90
6964;DHT22;3522;50.856;7.278;2023-09-18T13:24:25;24.70;99.90
6964;DHT22;3522;50.856;7.278;2023-09-18T13:26:52;25.00;99.90
6964;DHT22;3522;50.856;7.278;2023-09-18T13:29:20;25.20;99.90
6964;DHT22;3522;50.856;7.278;2023-09-18T13:31:47;25.00;99.90
6964;DHT22;3522;50.856;7.278;2023-09-18T13:34:13;24.70;99.90
6964;DHT22;3522;50.856;7.278;2023-09-18T13:36:43;24.90;99.90
6964;DHT22;3522;50.856;7.278;2023-09-18T13:39:10;24.90;99.90
6964;DHT22;3522;50.856;7.278;2023-09-18T13:41:37;24.80;99.90
6964;DHT22;3522;50.856;7.278;2023-09-18T13:44:04;24.60;99.90
6964;DHT22;3522;50.856;7.278;2023-09-18T13:46:32;24.60;99.90
6964;DHT22;3522;50.856;7.278;2023-09-18T13:49:01;24.50;99.90
6964;DHT22;3522;50.856;7.278;2023-09-18T13:51:29;24.30;99.90
6964;DHT22;3522;50.856;7.278;2023-09-18T13:53:56;24.40;99.90
6964;DHT22;3522;50.856;7.278;2023-09-18T13:56:22;24.20;99.90
6964;DHT22;3522;50.856;7.278;2023-09-18T13:58:53;24.20;99.90
6964;DHT22;3522;50.856;7.278;2023-09-18T14:01:21;24.40;99.90
6964;DHT22;3522;50.856;7.278;2023-09-18T14:03:49;24.40;99.90
6964;DHT22;3522;50.856;7.278;2023-09-18T14:06:16;24.30;99.90
6964;DHT22;3522;50.856;7.278;2023-09-18T14:08:42;24.20;99.90
6964;DHT22;3522;50.856;7.278;2023-09-18T14:11:09;23.90;99.90
6964;DHT22;3522;50.856;7.278;2023-09-18T14:13:35;23.80;99.90
6964;DHT22;3522;50.856;7.278;2023-09-18T14:16:02;23.90;99.90
6964;DHT22;3522;50.856;7.278;2023-09-18T14:18:29;24.00;99.90
6964;DHT22;3522;50.856;7.278;2023-09-18T14:20:57;24.00;99.90
6964;DHT22;3522;50.856;7.278;2023-09-18T14:23:23;23.90;99.90
6964;DHT22;3522;50.856;7.278;2023-09-18T14:25:52;23.80;99.90
6964;DHT22;3522;50.856;7.278;2023-09-18T14:28:18;23.70;99.90
6964;DHT22;3522;50.856;7.278;2023-09-18T14:30:45;23.60;99.90
6964;DHT22;3522;50.856;7.278;2023-09-18T14:33:12;23.60;99.90
6964;DHT22;3522;50.856;7.278;2023-09-18T14:35:40;23.60;99.90
6964;DHT22;3522;50.856;7.278;2023-09-18T14:38:07;23.80;99.90
6964;DHT22;3522;50.856;7.278;2023-09-18T14:40:35;23.80;99.90
6964;DHT22;3522;50.856;7.278;2023-09-18T14:43:01;23.90;99.90
6964;DHT22;3522;50.856;7.278;2023-09-18T14:45:30;24.00;99.90
6964;DHT22;3522;50.856;7.278;2023-09-18T14:47:57;24.00;99.90
6964;DHT22;3522;50.856;7.278;2023-09-18T14:50:23;23.90;99.90
6964;DHT22;3522;50.856;7.278;2023-09-18T14:52:50;23.90;99.90
6964;DHT22;3522;50.856;7.278;2023-09-18T14:55:18;24.00;99.90
6964;DHT22;3522;50.856;7.278;2023-09-18T14:57:44;24.00;99.90
6964;DHT22;3522;50.856;7.278;2023-09-18T15:00:11;23.80;99.90
6964;DHT22;3522;50.856;7.278;2023-09-18T15:02:38;23.70;99.90
6964;DHT22;3522;50.856;7.278;2023-09-18T15:05:05;23.70;99.90
6964;DHT22;3522;50.856;7.278;2023-09-18T15:07:34;23.70;99.90
6964;DHT22;3522;50.856;7.278;2023-09-18T15:10:01;23.90;99.90
6964;DHT22;3522;50.856;7.278;2023-09-18T15:12:31;23.80;99.90
6964;DHT22;3522;50.856;7.278;2023-09-18T15:14:58;23.90;99.90
6964;DHT22;3522;50.856;7.278;2023-09-18T15:17:25;24.00;99.90
6964;DHT22;3522;50.856;7.278;2023-09-18T15:19:51;24.00;99.90
6964;DHT22;3522;50.856;7.278;2023-09-18T15:22:20;23.80;99.90
6964;DHT22;3522;50.856;7.278;2023-09-18T15:24:48;23.70;99.90
6964;DHT22;3522;50.856;7.278;2023-09-18T15:27:15;23.70;99.90
6964;DHT22;3522;50.856;7.278;2023-09-18T15:29:43;23.70;99.90
6964;DHT22;3522;50.856;7.278;2023-09-18T15:32:09;23.60;99.90
6964;DHT22;3522;50.856;7.278;2023-09-18T15:34:36;23.60;99.90
6964;DHT22;3522;50.856;7.278;2023-09-18T15:37:03;23.40;99.90
6964;DHT22;3522;50.856;7.278;2023-09-18T15:39:30;23.40;99.90
6964;DHT22;3522;50.856;7.278;2023-09-18T15:41:58;23.40;99.90
6964;DHT22;3522;50.856;7.278;2023-09-18T15:44:24;23.40;99.90
6964;DHT22;3522;50.856;7.278;2023-09-18T15:46:52;23.50;99.90
6964;DHT22;3522;50.856;7.278;2023-09-18T15:49:19;23.60;99.90
6964;DHT22;3522;50.856;7.278;2023-09-18T15:51:45;23.70;99.90
6964;DHT22;3522;50.856;7.278;2023-09-18T15:54:12;23.70;99.90
6964;DHT22;3522;50.856;7.278;2023-09-18T15:56:39;23.60;99.90
6964;DHT22;3522;50.856;7.278;2023-09-18T15:59:06;23.70;99.90
6964;DHT22;3522;50.856;7.278;2023-09-18T16:01:33;23.60;99.90
6964;DHT22;3522;50.856;7.278;2023-09-18T16:04:04;23.60;99.90
6964;DHT22;3522;50.856;7.278;2023-09-18T16:06:31;23.60;99.90
6964;DHT22;3522;50.856;7.278;2023-09-18T16:08:59;23.70;99.90
6964;DHT22;3522;50.856;7.278;2023-09-18T16:11:26;23.60;99.90